sensor_id;sensor_type;location;lat;lon;timestamp;P1;durP1;ratioP1;P2;durP2;ratioP2
64885;SDS011;51514;52.206;5.114;2022-10-19T00:01:48;13.32;;;3.35;;
64885;SDS011;51514;52.206;5.114;2022-10-19T00:04:13;24.23;;;3.53;;
64885;SDS011;51514;52.206;5.114;2022-10-19T00:06:39;15.88;;;3.28;;
64885;SDS011;51514;52.206;5.114;2022-10-19T00:11:31;13.93;;;3.00;;
64885;SDS011;51514;52.206;5.114;2022-10-19T00:13:58;15.45;;;3.17;;
64885;SDS011;51514;52.206;5.114;2022-10-19T00:16:28;14.15;;;3.53;;
64885;SDS011;51514;52.206;5.114;2022-10-19T00:18:55;37.20;;;4.25;;
64885;SDS011;51514;52.206;5.114;2022-10-19T00:21:21;11.48;;;2.72;;
64885;SDS011;51514;52.206;5.114;2022-10-19T00:23:48;9.18;;;3.00;;
64885;SDS011;51514;52.206;5.114;2022-10-19T00:26:13;25.00;;;5.25;;
64885;SDS011;51514;52.206;5.114;2022-10-19T00:28:39;22.60;;;3.28;;
64885;SDS011;51514;52.206;5.114;2022-10-19T00:31:06;10.52;;;2.72;;
64885;SDS011;51514;52.206;5.114;2022-10-19T00:33:34;11.25;;;3.78;;
64885;SDS011;51514;52.206;5.114;2022-10-19T00:35:59;13.07;;;3.03;;
64885;SDS011;51514;52.206;5.114;2022-10-19T00:38:26;16.02;;;3.25;;
64885;SDS011;51514;52.206;5.114;2022-10-19T00:40:51;11.70;;;2.92;;
64885;SDS011;51514;52.206;5.114;2022-10-19T00:43:24;21.23;;;4.60;;
64885;SDS011;51514;52.206;5.114;2022-10-19T00:45:52;17.90;;;3.72;;
64885;SDS011;51514;52.206;5.114;2022-10-19T00:48:18;21.50;;;4.97;;
64885;SDS011;51514;52.206;5.114;2022-10-19T00:50:57;7.25;;;3.03;;
64885;SDS011;51514;52.206;5.114;2022-10-19T00:53:24;9.20;;;2.70;;
64885;SDS011;51514;52.206;5.114;2022-10-19T00:55:54;25.48;;;3.50;;
64885;SDS011;51514;52.206;5.114;2022-10-19T00:58:21;18.63;;;3.05;;
64885;SDS011;51514;52.206;5.114;2022-10-19T01:00:49;22.73;;;3.70;;
64885;SDS011;51514;52.206;5.114;2022-10-19T01:03:15;22.80;;;3.00;;
64885;SDS011;51514;52.206;5.114;2022-10-19T01:05:40;19.25;;;3.25;;
64885;SDS011;51514;52.206;5.114;2022-10-19T01:08:06;11.13;;;3.13;;
64885;SDS011;51514;52.206;5.114;2022-10-19T01:10:37;20.38;;;3.95;;
64885;SDS011;51514;52.206;5.114;2022-10-19T01:13:39;9.15;;;2.80;;
64885;SDS011;51514;52.206;5.114;2022-10-19T01:16:41;8.38;;;2.65;;
64885;SDS011;51514;52.206;5.114;2022-10-19T01:28:02;12.48;;;2.55;;
64885;SDS011;51514;52.206;5.114;2022-10-19T01:36:31;13.00;;;4.03;;
64885;SDS011;51514;52.206;5.114;2022-10-19T01:39:15;18.23;;;4.90;;
64885;SDS011;51514;52.206;5.114;2022-10-19T01:44:25;9.57;;;2.95;;
64885;SDS011;51514;52.206;5.114;2022-10-19T01:46:59;2.83;;;2.10;;
64885;SDS011;51514;52.206;5.114;2022-10-19T01:52:08;15.45;;;3.17;;
64885;SDS011;51514;52.206;5.114;2022-10-19T01:54:40;9.33;;;3.30;;
64885;SDS011;51514;52.206;5.114;2022-10-19T01:57:11;8.60;;;3.15;;
64885;SDS011;51514;52.206;5.114;2022-10-19T01:59:41;4.25;;;2.42;;
64885;SDS011;51514;52.206;5.114;2022-10-19T02:02:07;3.28;;;2.47;;
64885;SDS011;51514;52.206;5.114;2022-10-19T02:04:34;6.38;;;2.17;;
64885;SDS011;51514;52.206;5.114;2022-10-19T02:07:01;6.95;;;2.35;;
64885;SDS011;51514;52.206;5.114;2022-10-19T02:09:29;6.00;;;2.47;;
64885;SDS011;51514;52.206;5.114;2022-10-19T02:11:59;9.65;;;3.25;;
64885;SDS011;51514;52.206;5.114;2022-10-19T02:14:31;19.83;;;3.55;;
64885;SDS011;51514;52.206;5.114;2022-10-19T02:17:02;12.45;;;3.78;;
64885;SDS011;51514;52.206;5.114;2022-10-19T02:19:32;26.95;;;4.50;;
64885;SDS011;51514;52.206;5.114;2022-10-19T02:21:57;15.75;;;2.55;;
64885;SDS011;51514;52.206;5.114;2022-10-19T02:24:23;6.80;;;1.98;;
64885;SDS011;51514;52.206;5.114;2022-10-19T02:26:48;17.40;;;2.47;;
64885;SDS011;51514;52.206;5.114;2022-10-19T02:29:14;10.90;;;3.03;;
64885;SDS011;51514;52.206;5.114;2022-10-19T02:31:40;17.27;;;3.78;;
64885;SDS011;51514;52.206;5.114;2022-10-19T02:34:06;8.25;;;3.40;;
64885;SDS011;51514;52.206;5.114;2022-10-19T02:36:34;9.45;;;3.15;;
64885;SDS011;51514;52.206;5.114;2022-10-19T02:38:59;17.42;;;4.60;;
64885;SDS011;51514;52.206;5.114;2022-10-19T02:41:41;15.10;;;3.20;;
64885;SDS011;51514;52.206;5.114;2022-10-19T02:44:14;15.60;;;3.53;;
64885;SDS011;51514;52.206;5.114;2022-10-19T02:46:42;11.23;;;3.30;;
64885;SDS011;51514;52.206;5.114;2022-10-19T02:49:10;7.28;;;2.78;;
64885;SDS011;51514;52.206;5.114;2022-10-19T02:51:38;19.38;;;3.60;;
64885;SDS011;51514;52.206;5.114;2022-10-19T02:54:18;14.57;;;2.90;;
64885;SDS011;51514;52.206;5.114;2022-10-19T02:56:43;15.98;;;3.42;;
64885;SDS011;51514;52.206;5.114;2022-10-19T02:59:09;20.77;;;5.20;;
64885;SDS011;51514;52.206;5.114;2022-10-19T03:01:34;16.38;;;3.50;;
64885;SDS011;51514;52.206;5.114;2022-10-19T03:03:59;9.27;;;3.25;;
64885;SDS011;51514;52.206;5.114;2022-10-19T03:06:25;7.53;;;3.00;;
64885;SDS011;51514;52.206;5.114;2022-10-19T03:08:50;6.35;;;2.80;;
64885;SDS011;51514;52.206;5.114;2022-10-19T03:11:15;8.20;;;3.00;;
64885;SDS011;51514;52.206;5.114;2022-10-19T03:13:40;8.18;;;3.63;;
64885;SDS011;51514;52.206;5.114;2022-10-19T03:16:08;14.80;;;3.25;;
64885;SDS011;51514;52.206;5.114;2022-10-19T03:18:35;11.35;;;3.03;;
64885;SDS011;51514;52.206;5.114;2022-10-19T03:21:01;10.23;;;3.15;;
64885;SDS011;51514;52.206;5.114;2022-10-19T03:23:31;8.18;;;3.20;;
64885;SDS011;51514;52.206;5.114;2022-10-19T03:25:57;15.85;;;3.42;;
64885;SDS011;51514;52.206;5.114;2022-10-19T03:28:22;9.68;;;3.25;;
64885;SDS011;51514;52.206;5.114;2022-10-19T03:30:47;15.30;;;4.03;;
64885;SDS011;51514;52.206;5.114;2022-10-19T03:33:13;11.02;;;4.00;;
64885;SDS011;51514;52.206;5.114;2022-10-19T03:35:38;25.77;;;3.85;;
64885;SDS011;51514;52.206;5.114;2022-10-19T03:38:04;16.88;;;4.10;;
64885;SDS011;51514;52.206;5.114;2022-10-19T03:40:29;6.55;;;3.42;;
64885;SDS011;51514;52.206;5.114;2022-10-19T03:42:54;6.45;;;3.65;;
64885;SDS011;51514;52.206;5.114;2022-10-19T03:45:22;13.25;;;3.22;;
64885;SDS011;51514;52.206;5.114;2022-10-19T03:47:48;24.67;;;4.28;;
64885;SDS011;51514;52.206;5.114;2022-10-19T03:50:14;31.58;;;5.20;;
64885;SDS011;51514;52.206;5.114;2022-10-19T03:52:41;22.00;;;3.95;;
64885;SDS011;51514;52.206;5.114;2022-10-19T03:55:09;23.20;;;4.63;;
64885;SDS011;51514;52.206;5.114;2022-10-19T03:57:35;19.70;;;3.70;;
64885;SDS011;51514;52.206;5.114;2022-10-19T04:00:01;8.93;;;3.33;;
64885;SDS011;51514;52.206;5.114;2022-10-19T04:02:27;10.35;;;3.03;;
64885;SDS011;51514;52.206;5.114;2022-10-19T04:04:53;9.73;;;4.75;;
64885;SDS011;51514;52.206;5.114;2022-10-19T04:07:18;10.60;;;3.97;;
64885;SDS011;51514;52.206;5.114;2022-10-19T04:09:43;15.90;;;4.93;;
64885;SDS011;51514;52.206;5.114;2022-10-19T04:12:09;12.20;;;3.80;;
64885;SDS011;51514;52.206;5.114;2022-10-19T04:14:34;10.95;;;3.50;;
64885;SDS011;51514;52.206;5.114;2022-10-19T04:17:00;14.27;;;4.00;;
64885;SDS011;51514;52.206;5.114;2022-10-19T04:19:26;10.02;;;3.65;;
64885;SDS011;51514;52.206;5.114;2022-10-19T04:21:51;23.35;;;4.55;;
64885;SDS011;51514;52.206;5.114;2022-10-19T04:24:17;16.65;;;3.90;;
64885;SDS011;51514;52.206;5.114;2022-10-19T04:26:47;17.33;;;3.90;;
64885;SDS011;51514;52.206;5.114;2022-10-19T04:29:16;27.35;;;4.65;;
64885;SDS011;51514;52.206;5.114;2022-10-19T04:31:43;27.20;;;5.03;;
64885;SDS011;51514;52.206;5.114;2022-10-19T04:34:10;15.35;;;4.70;;
64885;SDS011;51514;52.206;5.114;2022-10-19T04:36:35;21.45;;;4.93;;
64885;SDS011;51514;52.206;5.114;2022-10-19T04:39:01;19.98;;;4.50;;
64885;SDS011;51514;52.206;5.114;2022-10-19T04:41:28;13.48;;;4.60;;
64885;SDS011;51514;52.206;5.114;2022-10-19T04:43:57;11.43;;;5.07;;
64885;SDS011;51514;52.206;5.114;2022-10-19T04:46:24;18.60;;;4.85;;
64885;SDS011;51514;52.206;5.114;2022-10-19T04:48:51;16.73;;;5.72;;
64885;SDS011;51514;52.206;5.114;2022-10-19T04:51:17;10.30;;;4.38;;
64885;SDS011;51514;52.206;5.114;2022-10-19T04:53:44;8.02;;;4.22;;
64885;SDS011;51514;52.206;5.114;2022-10-19T04:56:15;7.95;;;3.25;;
64885;SDS011;51514;52.206;5.114;2022-10-19T04:58:43;16.15;;;3.08;;
64885;SDS011;51514;52.206;5.114;2022-10-19T05:01:10;9.00;;;2.90;;
64885;SDS011;51514;52.206;5.114;2022-10-19T05:03:37;8.40;;;2.90;;
64885;SDS011;51514;52.206;5.114;2022-10-19T05:06:03;8.88;;;3.45;;
64885;SDS011;51514;52.206;5.114;2022-10-19T05:08:31;3.72;;;2.70;;
64885;SDS011;51514;52.206;5.114;2022-10-19T05:11:01;5.18;;;3.08;;
64885;SDS011;51514;52.206;5.114;2022-10-19T05:13:29;5.28;;;3.20;;
64885;SDS011;51514;52.206;5.114;2022-10-19T05:15:56;5.68;;;3.60;;
64885;SDS011;51514;52.206;5.114;2022-10-19T05:18:22;10.55;;;3.78;;
64885;SDS011;51514;52.206;5.114;2022-10-19T05:20:47;5.57;;;3.75;;
64885;SDS011;51514;52.206;5.114;2022-10-19T05:23:13;9.43;;;4.57;;
64885;SDS011;51514;52.206;5.114;2022-10-19T05:25:38;8.18;;;3.63;;
64885;SDS011;51514;52.206;5.114;2022-10-19T05:28:03;9.02;;;4.13;;
64885;SDS011;51514;52.206;5.114;2022-10-19T05:30:29;11.98;;;7.60;;
64885;SDS011;51514;52.206;5.114;2022-10-19T05:32:54;15.27;;;7.20;;
64885;SDS011;51514;52.206;5.114;2022-10-19T05:35:19;9.45;;;6.70;;
64885;SDS011;51514;52.206;5.114;2022-10-19T05:37:45;11.52;;;6.28;;
64885;SDS011;51514;52.206;5.114;2022-10-19T05:40:11;11.95;;;7.15;;
64885;SDS011;51514;52.206;5.114;2022-10-19T05:42:36;16.75;;;7.07;;
64885;SDS011;51514;52.206;5.114;2022-10-19T05:45:01;12.57;;;6.65;;
64885;SDS011;51514;52.206;5.114;2022-10-19T05:47:27;13.77;;;7.95;;
64885;SDS011;51514;52.206;5.114;2022-10-19T05:49:55;12.10;;;6.90;;
64885;SDS011;51514;52.206;5.114;2022-10-19T05:52:20;10.70;;;6.65;;
64885;SDS011;51514;52.206;5.114;2022-10-19T05:54:45;12.52;;;6.93;;
64885;SDS011;51514;52.206;5.114;2022-10-19T05:57:11;19.10;;;8.40;;
64885;SDS011;51514;52.206;5.114;2022-10-19T05:59:36;14.05;;;7.43;;
64885;SDS011;51514;52.206;5.114;2022-10-19T06:02:01;20.75;;;8.05;;
64885;SDS011;51514;52.206;5.114;2022-10-19T06:04:27;14.02;;;7.38;;
64885;SDS011;51514;52.206;5.114;2022-10-19T06:06:52;12.73;;;7.80;;
64885;SDS011;51514;52.206;5.114;2022-10-19T06:09:17;16.48;;;9.02;;
64885;SDS011;51514;52.206;5.114;2022-10-19T06:11:43;14.90;;;7.18;;
64885;SDS011;51514;52.206;5.114;2022-10-19T06:14:12;13.13;;;7.40;;
64885;SDS011;51514;52.206;5.114;2022-10-19T06:16:40;14.07;;;6.57;;
64885;SDS011;51514;52.206;5.114;2022-10-19T06:19:06;14.77;;;5.93;;
64885;SDS011;51514;52.206;5.114;2022-10-19T06:21:32;13.35;;;5.90;;
64885;SDS011;51514;52.206;5.114;2022-10-19T06:23:59;21.65;;;7.47;;
64885;SDS011;51514;52.206;5.114;2022-10-19T06:26:26;16.15;;;6.90;;
64885;SDS011;51514;52.206;5.114;2022-10-19T06:28:56;15.40;;;6.95;;
64885;SDS011;51514;52.206;5.114;2022-10-19T06:31:24;13.13;;;7.20;;
64885;SDS011;51514;52.206;5.114;2022-10-19T06:33:56;14.90;;;7.13;;
64885;SDS011;51514;52.206;5.114;2022-10-19T06:36:22;13.88;;;7.05;;
64885;SDS011;51514;52.206;5.114;2022-10-19T06:38:49;10.88;;;6.25;;
64885;SDS011;51514;52.206;5.114;2022-10-19T06:41:14;10.40;;;4.75;;
64885;SDS011;51514;52.206;5.114;2022-10-19T06:43:40;10.90;;;5.53;;
64885;SDS011;51514;52.206;5.114;2022-10-19T06:46:11;10.77;;;4.60;;
64885;SDS011;51514;52.206;5.114;2022-10-19T06:48:48;16.35;;;5.90;;
64885;SDS011;51514;52.206;5.114;2022-10-19T06:51:16;14.90;;;5.53;;
64885;SDS011;51514;52.206;5.114;2022-10-19T06:53:41;11.00;;;5.07;;
64885;SDS011;51514;52.206;5.114;2022-10-19T06:56:07;9.25;;;5.20;;
64885;SDS011;51514;52.206;5.114;2022-10-19T06:58:37;12.45;;;5.47;;
64885;SDS011;51514;52.206;5.114;2022-10-19T07:01:03;10.73;;;5.68;;
64885;SDS011;51514;52.206;5.114;2022-10-19T07:03:31;11.32;;;5.60;;
64885;SDS011;51514;52.206;5.114;2022-10-19T07:06:01;16.90;;;6.15;;
64885;SDS011;51514;52.206;5.114;2022-10-19T07:08:29;16.67;;;5.68;;
64885;SDS011;51514;52.206;5.114;2022-10-19T07:10:57;14.73;;;5.80;;
64885;SDS011;51514;52.206;5.114;2022-10-19T07:13:25;17.50;;;5.68;;
64885;SDS011;51514;52.206;5.114;2022-10-19T07:15:58;9.75;;;5.97;;
64885;SDS011;51514;52.206;5.114;2022-10-19T07:18:35;14.20;;;6.95;;
64885;SDS011;51514;52.206;5.114;2022-10-19T07:21:03;14.95;;;6.50;;
64885;SDS011;51514;52.206;5.114;2022-10-19T07:23:30;10.53;;;6.33;;
64885;SDS011;51514;52.206;5.114;2022-10-19T07:25:57;14.05;;;7.18;;
64885;SDS011;51514;52.206;5.114;2022-10-19T07:28:28;10.30;;;7.28;;
64885;SDS011;51514;52.206;5.114;2022-10-19T07:30:54;16.90;;;6.30;;
64885;SDS011;51514;52.206;5.114;2022-10-19T07:33:19;12.45;;;6.82;;
64885;SDS011;51514;52.206;5.114;2022-10-19T07:35:45;13.68;;;6.82;;
64885;SDS011;51514;52.206;5.114;2022-10-19T07:38:10;10.70;;;6.13;;
64885;SDS011;51514;52.206;5.114;2022-10-19T07:40:35;19.02;;;6.90;;
64885;SDS011;51514;52.206;5.114;2022-10-19T07:43:03;12.40;;;5.93;;
64885;SDS011;51514;52.206;5.114;2022-10-19T07:45:29;8.98;;;6.20;;
64885;SDS011;51514;52.206;5.114;2022-10-19T07:47:56;14.30;;;6.45;;
64885;SDS011;51514;52.206;5.114;2022-10-19T07:50:21;19.13;;;6.72;;
64885;SDS011;51514;52.206;5.114;2022-10-19T07:52:51;12.77;;;7.32;;
64885;SDS011;51514;52.206;5.114;2022-10-19T07:55:16;9.95;;;6.00;;
64885;SDS011;51514;52.206;5.114;2022-10-19T07:57:45;17.88;;;5.75;;
64885;SDS011;51514;52.206;5.114;2022-10-19T08:00:11;19.52;;;6.53;;
64885;SDS011;51514;52.206;5.114;2022-10-19T08:02:36;11.73;;;6.80;;
64885;SDS011;51514;52.206;5.114;2022-10-19T08:05:02;13.07;;;6.07;;
64885;SDS011;51514;52.206;5.114;2022-10-19T08:07:27;16.25;;;6.32;;
64885;SDS011;51514;52.206;5.114;2022-10-19T08:09:52;14.07;;;5.55;;
64885;SDS011;51514;52.206;5.114;2022-10-19T08:12:18;10.85;;;5.47;;
64885;SDS011;51514;52.206;5.114;2022-10-19T08:14:46;10.98;;;5.55;;
64885;SDS011;51514;52.206;5.114;2022-10-19T08:17:12;10.77;;;4.80;;
64885;SDS011;51514;52.206;5.114;2022-10-19T08:19:40;8.20;;;5.20;;
64885;SDS011;51514;52.206;5.114;2022-10-19T08:22:07;10.43;;;4.88;;
64885;SDS011;51514;52.206;5.114;2022-10-19T08:24:32;8.07;;;4.93;;
64885;SDS011;51514;52.206;5.114;2022-10-19T08:26:58;10.93;;;4.50;;
64885;SDS011;51514;52.206;5.114;2022-10-19T08:29:26;10.82;;;5.13;;
64885;SDS011;51514;52.206;5.114;2022-10-19T08:31:52;12.10;;;4.85;;
64885;SDS011;51514;52.206;5.114;2022-10-19T08:34:18;9.75;;;5.22;;
64885;SDS011;51514;52.206;5.114;2022-10-19T08:36:43;14.50;;;5.68;;
64885;SDS011;51514;52.206;5.114;2022-10-19T08:39:08;16.35;;;5.30;;
64885;SDS011;51514;52.206;5.114;2022-10-19T08:41:41;10.10;;;4.63;;
64885;SDS011;51514;52.206;5.114;2022-10-19T08:47:25;10.68;;;4.88;;
64885;SDS011;51514;52.206;5.114;2022-10-19T08:50:09;8.38;;;4.53;;
64885;SDS011;51514;52.206;5.114;2022-10-19T08:52:41;12.60;;;4.25;;
64885;SDS011;51514;52.206;5.114;2022-10-19T08:55:12;9.15;;;4.80;;
64885;SDS011;51514;52.206;5.114;2022-10-19T08:57:52;11.77;;;4.47;;
64885;SDS011;51514;52.206;5.114;2022-10-19T09:00:38;15.25;;;5.13;;
64885;SDS011;51514;52.206;5.114;2022-10-19T09:05:40;9.77;;;4.45;;
64885;SDS011;51514;52.206;5.114;2022-10-19T09:08:10;10.05;;;4.55;;
64885;SDS011;51514;52.206;5.114;2022-10-19T09:10:41;11.63;;;4.93;;
64885;SDS011;51514;52.206;5.114;2022-10-19T09:15:43;10.20;;;4.30;;
64885;SDS011;51514;52.206;5.114;2022-10-19T09:18:13;10.15;;;4.20;;
64885;SDS011;51514;52.206;5.114;2022-10-19T09:20:44;7.28;;;3.72;;
64885;SDS011;51514;52.206;5.114;2022-10-19T09:23:19;9.05;;;3.75;;
64885;SDS011;51514;52.206;5.114;2022-10-19T09:26:04;10.48;;;3.63;;
64885;SDS011;51514;52.206;5.114;2022-10-19T09:31:33;10.20;;;3.95;;
64885;SDS011;51514;52.206;5.114;2022-10-19T09:34:04;9.40;;;4.18;;
64885;SDS011;51514;52.206;5.114;2022-10-19T09:36:34;12.73;;;4.63;;
64885;SDS011;51514;52.206;5.114;2022-10-19T09:39:04;9.70;;;3.65;;
64885;SDS011;51514;52.206;5.114;2022-10-19T09:41:30;8.40;;;3.50;;
64885;SDS011;51514;52.206;5.114;2022-10-19T09:43:56;10.30;;;3.60;;
64885;SDS011;51514;52.206;5.114;2022-10-19T09:46:31;10.93;;;3.70;;
64885;SDS011;51514;52.206;5.114;2022-10-19T09:49:01;10.73;;;3.90;;
64885;SDS011;51514;52.206;5.114;2022-10-19T09:51:37;8.88;;;2.92;;
64885;SDS011;51514;52.206;5.114;2022-10-19T09:54:30;10.35;;;3.30;;
64885;SDS011;51514;52.206;5.114;2022-10-19T09:57:00;7.57;;;2.90;;
64885;SDS011;51514;52.206;5.114;2022-10-19T09:59:28;11.80;;;3.90;;
64885;SDS011;51514;52.206;5.114;2022-10-19T10:02:17;11.63;;;3.67;;
64885;SDS011;51514;52.206;5.114;2022-10-19T10:04:54;15.27;;;3.55;;
64885;SDS011;51514;52.206;5.114;2022-10-19T10:07:28;10.00;;;2.97;;
64885;SDS011;51514;52.206;5.114;2022-10-19T10:09:58;10.43;;;3.67;;
64885;SDS011;51514;52.206;5.114;2022-10-19T10:12:24;9.32;;;3.38;;
64885;SDS011;51514;52.206;5.114;2022-10-19T10:14:50;9.15;;;3.22;;
64885;SDS011;51514;52.206;5.114;2022-10-19T10:17:18;8.82;;;3.00;;
64885;SDS011;51514;52.206;5.114;2022-10-19T10:22:27;12.05;;;2.95;;
64885;SDS011;51514;52.206;5.114;2022-10-19T10:24:55;6.53;;;2.58;;
64885;SDS011;51514;52.206;5.114;2022-10-19T10:27:31;11.02;;;2.78;;
64885;SDS011;51514;52.206;5.114;2022-10-19T10:30:01;6.47;;;2.58;;
64885;SDS011;51514;52.206;5.114;2022-10-19T10:32:31;9.48;;;2.60;;
64885;SDS011;51514;52.206;5.114;2022-10-19T10:35:02;9.50;;;2.72;;
64885;SDS011;51514;52.206;5.114;2022-10-19T10:37:34;7.78;;;2.38;;
64885;SDS011;51514;52.206;5.114;2022-10-19T10:40:00;5.68;;;2.53;;
64885;SDS011;51514;52.206;5.114;2022-10-19T10:42:28;6.30;;;2.80;;
64885;SDS011;51514;52.206;5.114;2022-10-19T10:45:17;9.73;;;2.67;;
64885;SDS011;51514;52.206;5.114;2022-10-19T10:47:48;12.68;;;2.40;;
64885;SDS011;51514;52.206;5.114;2022-10-19T10:50:15;5.95;;;2.10;;
64885;SDS011;51514;52.206;5.114;2022-10-19T10:52:59;7.05;;;2.55;;
64885;SDS011;51514;52.206;5.114;2022-10-19T10:55:25;7.68;;;2.72;;
64885;SDS011;51514;52.206;5.114;2022-10-19T10:57:52;7.53;;;3.00;;
64885;SDS011;51514;52.206;5.114;2022-10-19T11:00:28;10.57;;;2.35;;
64885;SDS011;51514;52.206;5.114;2022-10-19T11:03:04;6.75;;;2.65;;
64885;SDS011;51514;52.206;5.114;2022-10-19T11:05:40;10.77;;;3.40;;
64885;SDS011;51514;52.206;5.114;2022-10-19T11:08:17;7.55;;;2.40;;
64885;SDS011;51514;52.206;5.114;2022-10-19T11:10:48;8.65;;;2.80;;
64885;SDS011;51514;52.206;5.114;2022-10-19T11:15:54;7.57;;;2.70;;
64885;SDS011;51514;52.206;5.114;2022-10-19T11:20:57;5.28;;;2.55;;
64885;SDS011;51514;52.206;5.114;2022-10-19T11:23:42;5.90;;;2.30;;
64885;SDS011;51514;52.206;5.114;2022-10-19T11:29:27;8.95;;;2.65;;
64885;SDS011;51514;52.206;5.114;2022-10-19T11:31:57;10.85;;;2.33;;
64885;SDS011;51514;52.206;5.114;2022-10-19T11:34:29;5.68;;;2.10;;
64885;SDS011;51514;52.206;5.114;2022-10-19T11:40:00;9.98;;;2.92;;
64885;SDS011;51514;52.206;5.114;2022-10-19T11:45:24;7.25;;;2.28;;
64885;SDS011;51514;52.206;5.114;2022-10-19T11:50:53;4.97;;;2.15;;
64885;SDS011;51514;52.206;5.114;2022-10-19T11:53:27;6.72;;;2.38;;
64885;SDS011;51514;52.206;5.114;2022-10-19T11:56:09;7.22;;;2.03;;
64885;SDS011;51514;52.206;5.114;2022-10-19T12:07:35;12.90;;;2.53;;
64885;SDS011;51514;52.206;5.114;2022-10-19T12:12:32;6.72;;;2.60;;
64885;SDS011;51514;52.206;5.114;2022-10-19T12:15:11;7.82;;;2.55;;
64885;SDS011;51514;52.206;5.114;2022-10-19T12:17:44;8.73;;;1.98;;
64885;SDS011;51514;52.206;5.114;2022-10-19T12:20:20;7.70;;;2.20;;
64885;SDS011;51514;52.206;5.114;2022-10-19T12:22:52;8.80;;;2.00;;
64885;SDS011;51514;52.206;5.114;2022-10-19T12:25:18;8.75;;;2.25;;
64885;SDS011;51514;52.206;5.114;2022-10-19T12:27:44;5.07;;;2.00;;
64885;SDS011;51514;52.206;5.114;2022-10-19T12:30:14;5.90;;;2.17;;
64885;SDS011;51514;52.206;5.114;2022-10-19T12:33:02;9.20;;;3.13;;
64885;SDS011;51514;52.206;5.114;2022-10-19T12:44:42;7.80;;;2.20;;
64885;SDS011;51514;52.206;5.114;2022-10-19T12:47:07;7.38;;;2.17;;
64885;SDS011;51514;52.206;5.114;2022-10-19T12:49:37;6.38;;;2.63;;
64885;SDS011;51514;52.206;5.114;2022-10-19T12:52:08;3.78;;;1.80;;
64885;SDS011;51514;52.206;5.114;2022-10-19T12:54:35;6.85;;;2.10;;
64885;SDS011;51514;52.206;5.114;2022-10-19T12:57:03;5.05;;;1.98;;
64885;SDS011;51514;52.206;5.114;2022-10-19T12:59:45;8.25;;;1.90;;
64885;SDS011;51514;52.206;5.114;2022-10-19T13:02:24;6.47;;;2.35;;
64885;SDS011;51514;52.206;5.114;2022-10-19T13:04:57;8.48;;;3.85;;
64885;SDS011;51514;52.206;5.114;2022-10-19T13:07:23;8.85;;;2.67;;
64885;SDS011;51514;52.206;5.114;2022-10-19T13:09:58;7.78;;;2.25;;
64885;SDS011;51514;52.206;5.114;2022-10-19T13:12:26;6.40;;;2.60;;
64885;SDS011;51514;52.206;5.114;2022-10-19T13:14:53;8.57;;;2.20;;
64885;SDS011;51514;52.206;5.114;2022-10-19T13:22:38;13.90;;;3.03;;
64885;SDS011;51514;52.206;5.114;2022-10-19T13:36:04;7.65;;;2.75;;
64885;SDS011;51514;52.206;5.114;2022-10-19T13:38:32;5.93;;;2.40;;
64885;SDS011;51514;52.206;5.114;2022-10-19T13:49:32;11.18;;;2.90;;
64885;SDS011;51514;52.206;5.114;2022-10-19T14:00:56;5.13;;;2.45;;
64885;SDS011;51514;52.206;5.114;2022-10-19T14:03:19;12.00;;;2.92;;
64885;SDS011;51514;52.206;5.114;2022-10-19T14:05:58;7.07;;;2.80;;
64885;SDS011;51514;52.206;5.114;2022-10-19T14:11:03;6.53;;;2.72;;
64885;SDS011;51514;52.206;5.114;2022-10-19T14:13:36;6.05;;;2.53;;
64885;SDS011;51514;52.206;5.114;2022-10-19T14:16:01;9.57;;;2.90;;
64885;SDS011;51514;52.206;5.114;2022-10-19T14:20:59;12.02;;;3.25;;
64885;SDS011;51514;52.206;5.114;2022-10-19T14:23:27;7.22;;;2.97;;
64885;SDS011;51514;52.206;5.114;2022-10-19T14:25:59;8.90;;;2.53;;
64885;SDS011;51514;52.206;5.114;2022-10-19T14:28:27;9.20;;;2.88;;
64885;SDS011;51514;52.206;5.114;2022-10-19T14:30:54;6.32;;;2.88;;
64885;SDS011;51514;52.206;5.114;2022-10-19T14:33:19;10.35;;;3.30;;
64885;SDS011;51514;52.206;5.114;2022-10-19T14:35:47;6.90;;;2.78;;
64885;SDS011;51514;52.206;5.114;2022-10-19T14:38:18;8.35;;;2.67;;
64885;SDS011;51514;52.206;5.114;2022-10-19T14:43:22;7.22;;;2.55;;
64885;SDS011;51514;52.206;5.114;2022-10-19T14:48:32;13.10;;;2.45;;
64885;SDS011;51514;52.206;5.114;2022-10-19T14:51:06;7.90;;;2.45;;
64885;SDS011;51514;52.206;5.114;2022-10-19T14:53:43;6.22;;;2.90;;
64885;SDS011;51514;52.206;5.114;2022-10-19T14:56:29;10.75;;;2.92;;
64885;SDS011;51514;52.206;5.114;2022-10-19T14:59:06;7.03;;;2.25;;
64885;SDS011;51514;52.206;5.114;2022-10-19T15:01:37;9.90;;;3.05;;
64885;SDS011;51514;52.206;5.114;2022-10-19T15:04:02;8.93;;;2.42;;
64885;SDS011;51514;52.206;5.114;2022-10-19T15:06:29;9.13;;;3.03;;
64885;SDS011;51514;52.206;5.114;2022-10-19T15:09:13;7.47;;;2.72;;
64885;SDS011;51514;52.206;5.114;2022-10-19T15:11:45;7.70;;;2.97;;
64885;SDS011;51514;52.206;5.114;2022-10-19T15:14:16;10.65;;;3.60;;
64885;SDS011;51514;52.206;5.114;2022-10-19T15:16:58;10.98;;;5.53;;
64885;SDS011;51514;52.206;5.114;2022-10-19T15:19:30;12.10;;;4.65;;
64885;SDS011;51514;52.206;5.114;2022-10-19T15:24:38;8.52;;;3.80;;
64885;SDS011;51514;52.206;5.114;2022-10-19T15:27:47;10.45;;;3.85;;
64885;SDS011;51514;52.206;5.114;2022-10-19T15:29:59;7.50;;;4.28;;
64885;SDS011;51514;52.206;5.114;2022-10-19T15:32:32;8.57;;;3.78;;
64885;SDS011;51514;52.206;5.114;2022-10-19T15:35:17;9.52;;;4.10;;
64885;SDS011;51514;52.206;5.114;2022-10-19T15:37:47;5.88;;;2.50;;
64885;SDS011;51514;52.206;5.114;2022-10-19T15:40:19;7.03;;;2.70;;
64885;SDS011;51514;52.206;5.114;2022-10-19T15:42:49;8.38;;;2.80;;
64885;SDS011;51514;52.206;5.114;2022-10-19T15:50:43;16.52;;;3.38;;
64885;SDS011;51514;52.206;5.114;2022-10-19T15:53:12;5.45;;;3.00;;
64885;SDS011;51514;52.206;5.114;2022-10-19T15:55:38;8.25;;;2.70;;
64885;SDS011;51514;52.206;5.114;2022-10-19T15:58:03;6.05;;;2.65;;
64885;SDS011;51514;52.206;5.114;2022-10-19T16:00:28;7.20;;;3.08;;
64885;SDS011;51514;52.206;5.114;2022-10-19T16:02:54;11.23;;;4.75;;
64885;SDS011;51514;52.206;5.114;2022-10-19T16:05:19;11.18;;;4.55;;
64885;SDS011;51514;52.206;5.114;2022-10-19T16:07:44;13.38;;;7.70;;
64885;SDS011;51514;52.206;5.114;2022-10-19T16:10:13;10.13;;;3.25;;
64885;SDS011;51514;52.206;5.114;2022-10-19T16:12:42;10.25;;;5.18;;
64885;SDS011;51514;52.206;5.114;2022-10-19T16:15:10;12.23;;;3.72;;
64885;SDS011;51514;52.206;5.114;2022-10-19T16:17:36;7.38;;;3.42;;
64885;SDS011;51514;52.206;5.114;2022-10-19T16:20:02;11.77;;;5.45;;
64885;SDS011;51514;52.206;5.114;2022-10-19T16:22:28;8.70;;;2.75;;
64885;SDS011;51514;52.206;5.114;2022-10-19T16:24:53;7.80;;;2.40;;
64885;SDS011;51514;52.206;5.114;2022-10-19T16:27:18;11.15;;;2.92;;
64885;SDS011;51514;52.206;5.114;2022-10-19T16:29:44;9.50;;;2.97;;
64885;SDS011;51514;52.206;5.114;2022-10-19T16:32:09;9.00;;;3.03;;
64885;SDS011;51514;52.206;5.114;2022-10-19T16:34:34;50.28;;;21.75;;
64885;SDS011;51514;52.206;5.114;2022-10-19T16:37:00;119.40;;;52.03;;
64885;SDS011;51514;52.206;5.114;2022-10-19T16:39:25;51.13;;;23.95;;
64885;SDS011;51514;52.206;5.114;2022-10-19T16:41:51;6.82;;;4.03;;
64885;SDS011;51514;52.206;5.114;2022-10-19T16:44:16;4.22;;;2.90;;
64885;SDS011;51514;52.206;5.114;2022-10-19T16:46:41;8.05;;;3.70;;
64885;SDS011;51514;52.206;5.114;2022-10-19T16:49:09;7.72;;;2.78;;
64885;SDS011;51514;52.206;5.114;2022-10-19T16:51:35;9.45;;;3.03;;
64885;SDS011;51514;52.206;5.114;2022-10-19T16:54:03;15.13;;;7.15;;
64885;SDS011;51514;52.206;5.114;2022-10-19T16:56:30;11.02;;;4.30;;
64885;SDS011;51514;52.206;5.114;2022-10-19T16:58:57;12.23;;;7.82;;